Accueil
METAR-TAF:

METAR-TAF

Aéroports :

Aéroport de Parme

Parme, Italie

latitude: 44-49-17N, longitude: 010-17-41E, altitude: 50 m

Observation

Le bulletin a été fait il y a 1 heure et 33 minutes, à 19:50 UTC
Vent 3 kt de ouest/nord-ouest
Température 5°C
Humidité 93%
Pression 1012 hPa
Visibilité: 3000 m
Nuages fragmentés à une hauteur de 1000 ft
brume

METAR: LIMP 201950Z 30003KT 3000 BR BKN010 05/04 Q1012

Heure: 22:23 (21:23 UTC)

Prévision

Le bulletin a été fait il y a 4 heures et 23 minutes, à 17:00 UTC
Prévision valable du 20 à 18 UTC au 21 à 18 UTC
Vent 5 kt de direction variable
Visibilité: 5000 m
Nuages fragmentés à une hauteur de 4000 ft
brume
Temporairement
du 21 à 14 UTC au 21 à 18 UTC
pluie

TAF: LIMP 201700Z 2018/2118 VRB05KT 5000 BR BKN040 TEMPO 2114/2118 RA

Observations et prévisions météorologiques de plus de 4000 aéroports (messages METAR et TAF).

Les stations disponibles sont représentées par des disques jaunes et rouges sur la carte.

Passer la souris dessus pour voir le nom de la station.

Cliquer dessus pour voir les observations et prévisions météorologiques.

Pour changer de carte: cliquez sur les boutons verts avec une croix noire pour zoomer, sur le bouton vert avec un tiret pour effectuer un zoom arrière, ou sur les flèches vertes pour les cartes adjacentes.


METAR-TAF: